Time;durP1;ratioP1;P1;durP2;ratioP2;P2;SDS_P1;SDS_P2;PMS_P1;PMS_P2;Temp;Humidity;BMP_temperature;BMP_pressure;BME280_temperature;BME280_humidity;BME280_pressure;Samples;Min_cycle;Max_cycle;Signal;HPM_P1;HPM_P2
2022/07/07 00:01:40;;;;;;;1.85;1.00;;;21.40;54.90;;;;;;5015841;28;20647;-66
2022/07/07 00:04:08;;;;;;;0.98;0.98;;;21.40;54.90;;;;;;5015751;28;20259;-67
2022/07/07 00:06:33;;;;;;;0.80;0.75;;;21.40;54.90;;;;;;5015163;28;20192;-66
2022/07/07 00:08:59;;;;;;;1.60;0.95;;;21.40;54.90;;;;;;5015741;28;20180;-66
2022/07/07 00:11:25;;;;;;;1.15;1.05;;;21.40;54.90;;;;;;5016004;28;20516;-66
2022/07/07 00:13:50;;;;;;;1.73;1.30;;;21.40;54.90;;;;;;5015002;28;20199;-66
2022/07/07 00:16:16;;;;;;;1.23;1.08;;;21.40;54.90;;;;;;5015867;28;20188;-66
2022/07/07 00:18:42;;;;;;;2.13;1.20;;;21.40;55.00;;;;;;5015480;28;20573;-67
2022/07/07 00:21:07;;;;;;;1.02;1.02;;;21.40;55.00;;;;;;5014816;28;20188;-67
2022/07/07 00:23:33;;;;;;;2.30;1.27;;;21.40;55.00;;;;;;5015854;28;20643;-67
2022/07/07 00:25:58;;;;;;;1.02;1.00;;;21.40;55.00;;;;;;5015302;28;20176;-66
2022/07/07 00:28:24;;;;;;;1.23;0.98;;;21.40;55.00;;;;;;5015054;28;20169;-66
2022/07/07 00:30:49;;;;;;;1.00;1.00;;;21.40;55.00;;;;;;5015303;28;20514;-66
2022/07/07 00:33:16;;;;;;;1.00;1.00;;;21.40;55.10;;;;;;5015336;28;20580;-67
2022/07/07 00:35:41;;;;;;;1.23;1.10;;;21.40;55.10;;;;;;5014472;28;20238;-66
2022/07/07 00:38:07;;;;;;;2.05;1.00;;;21.40;55.10;;;;;;5015332;28;20212;-66
2022/07/07 00:40:32;;;;;;;0.90;0.90;;;21.40;55.00;;;;;;5015452;28;20230;-67
2022/07/07 00:42:58;;;;;;;1.30;1.20;;;21.40;55.10;;;;;;5014519;28;20187;-66
2022/07/07 00:45:24;;;;;;;0.90;0.90;;;21.40;55.10;;;;;;5015377;28;20615;-65
2022/07/07 00:47:50;;;;;;;1.38;0.90;;;21.40;55.10;;;;;;5014878;28;20234;-65
2022/07/07 00:50:15;;;;;;;1.25;1.15;;;21.40;55.10;;;;;;5014209;28;20561;-65
2022/07/07 00:52:41;;;;;;;1.20;1.10;;;21.40;55.20;;;;;;5015063;28;20180;-65
2022/07/07 00:55:08;;;;;;;1.67;1.00;;;21.40;55.30;;;;;;5014423;28;20181;-66
2022/07/07 00:57:33;;;;;;;1.33;1.17;;;21.40;55.30;;;;;;5014966;28;20203;-65
2022/07/07 01:00:02;;;;;;;1.70;1.27;;;21.40;55.20;;;;;;5014617;28;20180;-66
2022/07/07 01:02:29;;;;;;;1.10;1.00;;;21.40;55.30;;;;;;5014112;28;20223;-66
2022/07/07 01:04:56;;;;;;;1.20;1.10;;;21.40;55.30;;;;;;5014549;28;20184;-66
2022/07/07 01:07:21;;;;;;;1.05;1.00;;;21.40;55.40;;;;;;4997483;28;20176;-66
2022/07/07 01:09:47;;;;;;;1.15;1.02;;;21.40;55.40;;;;;;4996264;28;20643;-66
2022/07/07 01:12:12;;;;;;;1.88;1.20;;;21.40;55.40;;;;;;4997170;28;20192;-66
2022/07/07 01:14:38;;;;;;;1.30;1.20;;;21.40;55.60;;;;;;5014534;28;20188;-66
2022/07/07 01:17:04;;;;;;;1.67;1.10;;;21.40;55.50;;;;;;5013842;28;20191;-67
2022/07/07 01:19:29;;;;;;;1.52;1.42;;;21.40;55.60;;;;;;5014467;28;20277;-67
2022/07/07 01:22:05;;;;;;;1.38;1.27;;;21.40;55.50;;;;;;5014428;28;20303;-66
2022/07/07 01:24:31;;;;;;;1.40;1.02;;;21.40;55.60;;;;;;4996348;28;20180;-66
2022/07/07 01:27:23;;;;;;;1.58;1.10;;;21.40;55.70;;;;;;5013985;28;20173;-66
2022/07/07 01:29:50;;;;;;;1.35;1.27;;;21.40;55.70;;;;;;5009470;28;20360;-65
2022/07/07 01:32:15;;;;;;;1.40;1.15;;;21.40;55.70;;;;;;5013691;28;20187;-65
2022/07/07 01:34:43;;;;;;;1.35;1.25;;;21.30;55.70;;;;;;5014195;28;20172;-66
2022/07/07 01:37:08;;;;;;;1.40;1.30;;;21.30;55.70;;;;;;5014074;28;20720;-66
2022/07/07 01:39:34;;;;;;;1.15;1.15;;;21.40;55.80;;;;;;5013358;28;20181;-66
2022/07/07 01:42:00;;;;;;;2.17;1.20;;;21.40;55.80;;;;;;5013835;28;20307;-66
2022/07/07 01:44:32;;;;;;;1.30;1.20;;;21.40;55.90;;;;;;5013372;28;20184;-65
2022/07/07 01:46:57;;;;;;;1.23;1.10;;;21.40;55.90;;;;;;5013894;28;20173;-65
2022/07/07 01:49:23;;;;;;;1.67;1.52;;;21.40;55.90;;;;;;5013973;28;20181;-65
2022/07/07 01:51:48;;;;;;;1.35;1.20;;;21.30;55.80;;;;;;4995565;28;20227;-65
2022/07/07 01:54:14;;;;;;;1.23;1.15;;;21.30;55.90;;;;;;5013821;28;20631;-65
2022/07/07 01:56:39;;;;;;;1.40;1.30;;;21.30;55.90;;;;;;5013706;28;20183;-66
2022/07/07 01:59:05;;;;;;;1.58;1.30;;;21.30;55.90;;;;;;5012881;28;20235;-66
2022/07/07 02:01:30;;;;;;;1.60;1.42;;;21.30;55.90;;;;;;5014012;28;20172;-66
2022/07/07 02:03:56;;;;;;;1.42;1.33;;;21.30;55.90;;;;;;5013417;28;20655;-66
2022/07/07 02:06:21;;;;;;;1.40;1.20;;;21.30;56.00;;;;;;5013051;28;20211;-66
2022/07/07 02:08:47;;;;;;;1.52;1.40;;;21.30;55.90;;;;;;5013602;28;20231;-66
2022/07/07 02:11:12;;;;;;;1.38;1.27;;;21.30;55.90;;;;;;5013079;28;20583;-66
2022/07/07 02:13:38;;;;;;;2.67;1.20;;;21.30;56.00;;;;;;5012608;28;20297;-66
2022/07/07 02:16:04;;;;;;;1.40;1.30;;;21.30;56.00;;;;;;5013669;28;20195;-67
2022/07/07 02:18:33;;;;;;;1.05;1.05;;;21.30;56.00;;;;;;5013535;28;20702;-67
2022/07/07 02:20:58;;;;;;;1.50;1.40;;;21.30;56.10;;;;;;5012548;28;20267;-66
2022/07/07 02:23:24;;;;;;;1.30;1.20;;;21.30;56.10;;;;;;5013380;28;20647;-66
2022/07/07 02:25:49;;;;;;;1.95;1.40;;;21.30;56.10;;;;;;5013173;28;20259;-66
2022/07/07 02:28:15;;;;;;;1.30;1.20;;;21.30;56.10;;;;;;5012444;28;20184;-65
2022/07/07 02:30:40;;;;;;;1.42;1.33;;;21.30;56.10;;;;;;5013301;28;20203;-65
2022/07/07 02:33:06;;;;;;;1.45;1.30;;;21.30;56.20;;;;;;5013372;28;20636;-66
2022/07/07 02:35:32;;;;;;;1.58;1.48;;;21.30;56.40;;;;;;5012683;28;20177;-66
2022/07/07 02:37:57;;;;;;;1.83;1.10;;;21.30;56.30;;;;;;5012898;28;20208;-66
2022/07/07 02:40:23;;;;;;;1.20;1.10;;;21.30;56.30;;;;;;5013172;28;20263;-66
2022/07/07 02:42:48;;;;;;;1.27;1.17;;;21.30;56.30;;;;;;5012201;28;20658;-66
2022/07/07 02:45:14;;;;;;;2.25;1.63;;;21.30;56.50;;;;;;5013299;28;20172;-65
2022/07/07 02:47:40;;;;;;;1.50;1.30;;;21.30;56.60;;;;;;5012431;28;20187;-65
2022/07/07 02:50:05;;;;;;;1.10;1.10;;;21.30;56.60;;;;;;5012984;28;20259;-65
2022/07/07 02:52:31;;;;;;;1.50;1.40;;;21.30;56.70;;;;;;5013161;28;20176;-65
2022/07/07 02:54:56;;;;;;;1.98;1.30;;;21.30;56.60;;;;;;5012119;28;20183;-65
2022/07/07 02:57:22;;;;;;;1.70;1.30;;;21.30;56.70;;;;;;5012867;28;20243;-66
2022/07/07 02:59:47;;;;;;;1.50;1.40;;;21.30;56.70;;;;;;5012807;28;20208;-65
2022/07/07 03:02:13;;;;;;;1.20;1.10;;;21.30;56.70;;;;;;5012198;28;20176;-66
2022/07/07 03:04:38;;;;;;;1.30;1.20;;;21.30;56.80;;;;;;5012908;28;20184;-66
2022/07/07 03:07:04;;;;;;;1.60;1.33;;;21.30;56.90;;;;;;5012902;28;20176;-66
2022/07/07 03:09:29;;;;;;;1.40;1.30;;;21.30;56.90;;;;;;5012254;28;20187;-67
2022/07/07 03:11:55;;;;;;;1.20;1.08;;;21.30;57.10;;;;;;5012481;28;20168;-66
2022/07/07 03:14:20;;;;;;;2.80;1.35;;;21.20;57.20;;;;;;5013037;28;20181;-66
2022/07/07 03:16:46;;;;;;;1.45;1.35;;;21.20;57.10;;;;;;5012191;28;20173;-66
2022/07/07 03:19:11;;;;;;;1.50;1.38;;;21.30;57.10;;;;;;5012863;28;20215;-66
2022/07/07 03:21:37;;;;;;;1.65;1.20;;;21.30;57.10;;;;;;5013042;28;20184;-66
2022/07/07 03:24:04;;;;;;;1.10;1.10;;;21.30;57.10;;;;;;5016032;28;20569;-66
2022/07/07 03:26:30;;;;;;;1.10;1.10;;;21.30;57.10;;;;;;5016784;28;20585;-66
2022/07/07 03:28:55;;;;;;;1.20;1.10;;;21.20;57.10;;;;;;5016479;28;20631;-65
2022/07/07 03:31:21;;;;;;;1.15;1.05;;;21.20;57.10;;;;;;5015863;28;20168;-65
2022/07/07 03:33:46;;;;;;;1.10;1.10;;;21.20;57.10;;;;;;5016400;28;20172;-65
2022/07/07 03:36:12;;;;;;;1.30;1.20;;;21.20;57.10;;;;;;5016465;28;20169;-66
2022/07/07 03:38:38;;;;;;;2.50;1.40;;;21.20;57.10;;;;;;5015515;28;20208;-66
2022/07/07 03:41:03;;;;;;;1.48;1.15;;;21.20;57.10;;;;;;5016195;28;20172;-66
2022/07/07 03:43:29;;;;;;;1.35;1.20;;;21.20;57.10;;;;;;5016497;28;20239;-66
2022/07/07 03:45:54;;;;;;;0.90;0.90;;;21.20;57.80;;;;;;5015466;28;20263;-66
2022/07/07 03:48:20;;;;;;;1.45;1.17;;;21.20;57.20;;;;;;5016225;28;20208;-65
2022/07/07 03:50:45;;;;;;;1.20;1.08;;;21.20;57.10;;;;;;5016157;28;20179;-65
2022/07/07 03:53:11;;;;;;;0.95;0.95;;;21.20;57.20;;;;;;5015444;28;20168;-66
2022/07/07 03:55:36;;;;;;;1.30;1.10;;;21.20;57.20;;;;;;5015752;28;20239;-66
2022/07/07 03:58:02;;;;;;;1.13;0.95;;;21.20;57.30;;;;;;5015479;28;20609;-65
2022/07/07 04:00:31;;;;;;;1.42;1.33;;;21.20;57.30;;;;;;5016108;28;20600;-65
2022/07/07 04:02:57;;;;;;;1.88;1.20;;;21.20;57.40;;;;;;5015608;28;20232;-65
2022/07/07 04:05:22;;;;;;;1.17;1.02;;;21.20;57.40;;;;;;5015317;28;20180;-66
2022/07/07 04:07:48;;;;;;;1.27;0.93;;;21.20;57.40;;;;;;5015949;28;20214;-66
2022/07/07 04:10:13;;;;;;;1.50;1.05;;;21.20;57.40;;;;;;5015893;28;20181;-66
2022/07/07 04:12:39;;;;;;;1.23;1.00;;;21.20;57.30;;;;;;5014848;28;20181;-66
2022/07/07 04:15:05;;;;;;;1.45;1.17;;;21.20;57.40;;;;;;5015876;28;20180;-67
2022/07/07 04:17:30;;;;;;;0.90;0.90;;;21.20;57.40;;;;;;5015983;28;20547;-66
2022/07/07 04:19:56;;;;;;;1.10;1.00;;;21.20;57.40;;;;;;5014682;28;20699;-66
2022/07/07 04:22:21;;;;;;;1.20;1.20;;;21.20;57.50;;;;;;5015720;28;20195;-66
2022/07/07 04:24:47;;;;;;;1.35;1.20;;;21.20;57.50;;;;;;5015334;28;20551;-67
2022/07/07 04:27:12;;;;;;;1.55;1.40;;;21.20;57.40;;;;;;5014671;28;20620;-67
2022/07/07 04:29:38;;;;;;;0.85;0.80;;;21.20;58.00;;;;;;5015573;28;20196;-67
2022/07/07 04:32:04;;;;;;;2.28;1.35;;;21.20;57.40;;;;;;5015551;28;20255;-66
2022/07/07 04:34:29;;;;;;;0.70;0.70;;;21.20;57.50;;;;;;5014476;28;20535;-67
2022/07/07 04:36:55;;;;;;;1.40;1.00;;;21.20;57.50;;;;;;5015106;28;20177;-67
2022/07/07 04:39:20;;;;;;;1.10;1.00;;;21.20;57.50;;;;;;5015201;28;20734;-67
2022/07/07 04:41:46;;;;;;;1.02;0.90;;;21.20;58.10;;;;;;5014343;28;20627;-66
2022/07/07 04:44:11;;;;;;;1.08;1.00;;;21.20;57.80;;;;;;5015308;28;20204;-66
2022/07/07 04:46:37;;;;;;;1.30;1.00;;;21.20;57.80;;;;;;5014889;28;20179;-66
2022/07/07 04:49:02;;;;;;;0.90;0.90;;;21.20;57.80;;;;;;5014489;28;20173;-66
2022/07/07 04:51:28;;;;;;;0.82;0.80;;;21.20;57.80;;;;;;5015062;28;20181;-66
2022/07/07 04:53:54;;;;;;;0.88;0.88;;;21.20;57.80;;;;;;5014687;28;20651;-66
2022/07/07 04:56:19;;;;;;;1.13;1.02;;;21.20;57.80;;;;;;5014294;28;20180;-66
2022/07/07 04:58:45;;;;;;;1.00;0.88;;;21.20;57.80;;;;;;5014855;28;20216;-66
2022/07/07 05:01:10;;;;;;;2.05;1.05;;;21.20;57.90;;;;;;5014995;28;20173;-67
2022/07/07 05:03:36;;;;;;;1.08;0.80;;;21.20;57.80;;;;;;5013999;28;20220;-67
2022/07/07 05:06:01;;;;;;;1.42;0.95;;;21.20;57.80;;;;;;5014542;28;20234;-67
2022/07/07 05:08:29;;;;;;;0.88;0.80;;;21.20;57.90;;;;;;5013999;28;20180;-67
2022/07/07 05:10:54;;;;;;;1.05;0.95;;;21.20;57.80;;;;;;5014307;28;20211;-67
2022/07/07 05:13:20;;;;;;;1.02;0.93;;;21.20;57.80;;;;;;5014754;28;20204;-68
2022/07/07 05:15:45;;;;;;;1.35;1.10;;;21.20;57.90;;;;;;5013936;28;20263;-67
2022/07/07 05:18:11;;;;;;;0.70;0.70;;;21.20;57.90;;;;;;5014472;28;20299;-67
2022/07/07 05:20:37;;;;;;;0.80;0.80;;;21.20;57.90;;;;;;5014329;28;20165;-67
2022/07/07 05:23:02;;;;;;;1.33;0.93;;;21.20;57.90;;;;;;5013729;28;20204;-67
2022/07/07 05:25:28;;;;;;;0.77;0.77;;;21.20;57.80;;;;;;5014706;28;20179;-67
2022/07/07 05:27:53;;;;;;;0.85;0.85;;;21.20;57.90;;;;;;5014385;28;20255;-67
2022/07/07 05:30:19;;;;;;;1.10;0.90;;;21.20;58.00;;;;;;5013754;28;20173;-66
2022/07/07 05:32:45;;;;;;;2.67;0.85;;;21.20;57.90;;;;;;5014089;28;20219;-66
2022/07/07 05:35:10;;;;;;;2.05;0.80;;;21.20;58.00;;;;;;5014094;28;20179;-67
2022/07/07 05:37:36;;;;;;;1.70;0.90;;;21.20;58.20;;;;;;5013425;28;20235;-67
2022/07/07 05:40:01;;;;;;;1.58;1.02;;;21.20;58.20;;;;;;5013873;28;20259;-67
2022/07/07 05:42:27;;;;;;;1.08;0.98;;;21.20;58.10;;;;;;5014415;28;20168;-67
2022/07/07 05:44:52;;;;;;;0.93;0.70;;;21.20;58.20;;;;;;5012629;28;20636;-66
2022/07/07 05:47:18;;;;;;;1.35;0.90;;;21.20;58.20;;;;;;5014181;28;20187;-66
2022/07/07 05:49:43;;;;;;;0.93;0.88;;;21.30;58.10;;;;;;5013800;28;20179;-66
2022/07/07 05:52:09;;;;;;;1.38;0.85;;;21.30;58.10;;;;;;5013211;28;20187;-66
2022/07/07 05:54:34;;;;;;;0.90;0.80;;;21.30;58.10;;;;;;5014243;28;20531;-66
2022/07/07 05:57:00;;;;;;;1.13;1.00;;;21.30;58.10;;;;;;5013850;28;20180;-66
2022/07/07 05:59:25;;;;;;;0.88;0.65;;;21.30;58.10;;;;;;5013274;28;20216;-66
2022/07/07 06:01:51;;;;;;;1.15;0.90;;;21.30;58.00;;;;;;5013541;28;20654;-66
2022/07/07 06:04:16;;;;;;;1.20;0.80;;;21.30;58.00;;;;;;5013538;28;20221;-67
2022/07/07 06:06:42;;;;;;;1.45;0.70;;;21.30;58.10;;;;;;5012807;28;20201;-67
2022/07/07 06:09:07;;;;;;;1.25;0.80;;;21.30;58.00;;;;;;5013503;28;20230;-67
2022/07/07 06:11:33;;;;;;;1.73;1.15;;;21.40;58.10;;;;;;5013302;28;20504;-67
2022/07/07 06:13:58;;;;;;;1.55;0.80;;;21.30;58.00;;;;;;5013285;28;20184;-66
2022/07/07 06:16:40;;;;;;;2.17;0.80;;;21.40;58.10;;;;;;5013669;28;20706;-67
2022/07/07 06:19:06;;;;;;;2.63;1.17;;;21.30;58.10;;;;;;5012785;28;20312;-68
2022/07/07 06:21:32;;;;;;;1.95;0.70;;;21.30;58.00;;;;;;5013437;28;20200;-67
2022/07/07 06:23:57;;;;;;;1.70;0.70;;;21.30;58.10;;;;;;5013138;28;20267;-65
2022/07/07 06:26:23;;;;;;;1.05;0.75;;;21.30;58.20;;;;;;5012832;28;20180;-65
2022/07/07 06:28:48;;;;;;;2.08;0.90;;;21.30;58.40;;;;;;5013121;28;20191;-65
2022/07/07 06:31:14;;;;;;;2.17;0.98;;;21.30;58.30;;;;;;5013342;28;20180;-62
2022/07/07 06:33:39;;;;;;;4.25;1.00;;;21.40;58.50;;;;;;5011259;28;20172;-64
2022/07/07 06:36:08;;;;;;;2.38;0.85;;;21.40;58.30;;;;;;5021034;28;20171;-64
2022/07/07 06:38:33;;;;;;;1.98;0.73;;;21.40;58.90;;;;;;5026497;28;20204;-64
2022/07/07 06:40:59;;;;;;;7.25;1.10;;;21.40;58.20;;;;;;5012283;28;20199;-64
2022/07/07 06:43:25;;;;;;;1.85;0.90;;;21.40;58.20;;;;;;5013264;28;20176;-64
2022/07/07 06:45:50;;;;;;;2.83;0.88;;;21.40;58.80;;;;;;5012847;28;20180;-64
2022/07/07 06:48:16;;;;;;;2.53;1.45;;;21.50;58.20;;;;;;5012357;28;20176;-63
2022/07/07 06:50:41;;;;;;;6.22;1.40;;;21.40;58.20;;;;;;5012927;28;20172;-62
2022/07/07 06:53:07;;;;;;;2.67;0.88;;;21.40;58.20;;;;;;5013217;28;20177;-65
2022/07/07 06:55:33;;;;;;;8.20;1.85;;;21.50;58.30;;;;;;5012394;28;20645;-64
2022/07/07 06:57:58;;;;;;;4.20;1.30;;;21.40;58.40;;;;;;5012749;28;20281;-64
2022/07/07 07:00:24;;;;;;;4.05;1.40;;;21.40;58.30;;;;;;5013227;28;20183;-64
2022/07/07 07:02:49;;;;;;;4.32;1.20;;;21.40;58.40;;;;;;5011835;28;20711;-64
2022/07/07 07:05:15;;;;;;;3.40;1.10;;;21.40;58.30;;;;;;5012807;28;20177;-65
2022/07/07 07:07:41;;;;;;;3.38;0.90;;;21.40;58.40;;;;;;5012640;28;20623;-65
2022/07/07 07:10:07;;;;;;;4.43;1.33;;;21.50;58.40;;;;;;5012272;28;20184;-64
2022/07/07 07:12:32;;;;;;;2.17;1.05;;;21.50;58.50;;;;;;5012929;28;20252;-64
2022/07/07 07:14:58;;;;;;;4.32;1.63;;;21.50;58.60;;;;;;5011756;28;20176;-65
2022/07/07 07:17:23;;;;;;;2.10;0.68;;;21.50;58.40;;;;;;5012844;28;20211;-65
2022/07/07 07:19:49;;;;;;;3.67;1.35;;;21.50;58.50;;;;;;5012463;28;20177;-64
2022/07/07 07:22:14;;;;;;;3.35;0.90;;;21.50;58.40;;;;;;5012218;28;20995;-64
2022/07/07 07:24:40;;;;;;;4.65;1.50;;;21.60;58.50;;;;;;5012691;28;20187;-65
2022/07/07 07:27:05;;;;;;;3.75;1.20;;;21.60;58.50;;;;;;5012815;28;20171;-64
2022/07/07 07:29:31;;;;;;;3.05;1.13;;;21.60;58.50;;;;;;5012135;28;20521;-64
2022/07/07 07:31:56;;;;;;;2.40;1.08;;;21.60;58.70;;;;;;5012383;28;20588;-64
2022/07/07 07:34:22;;;;;;;3.38;0.80;;;21.60;58.70;;;;;;5012615;28;20177;-64
2022/07/07 07:36:47;;;;;;;3.58;1.27;;;21.60;58.60;;;;;;5011879;28;20207;-64
2022/07/07 07:39:13;;;;;;;3.50;1.20;;;21.60;58.50;;;;;;5012491;28;20220;-65
2022/07/07 07:41:39;;;;;;;4.45;1.02;;;21.60;58.50;;;;;;5012316;28;20652;-64
2022/07/07 07:44:04;;;;;;;2.38;0.90;;;21.60;58.40;;;;;;5011888;28;20188;-64
2022/07/07 07:46:30;;;;;;;4.55;1.40;;;21.60;58.40;;;;;;5012716;28;20627;-64
2022/07/07 07:48:55;;;;;;;2.55;1.33;;;21.70;58.40;;;;;;5012302;28;20683;-64
2022/07/07 07:51:21;;;;;;;3.15;1.20;;;21.60;58.50;;;;;;5011694;28;20537;-64
2022/07/07 07:53:46;;;;;;;2.92;0.90;;;21.60;58.40;;;;;;5012490;28;20204;-64
2022/07/07 07:56:12;;;;;;;3.10;1.08;;;21.60;58.50;;;;;;5012472;28;20263;-64
2022/07/07 07:58:37;;;;;;;3.08;1.02;;;21.60;58.40;;;;;;5011656;28;20262;-64
2022/07/07 08:01:03;;;;;;;3.03;1.25;;;21.60;58.50;;;;;;5012369;28;20173;-64
2022/07/07 08:03:29;;;;;;;2.83;0.75;;;21.60;58.50;;;;;;5012291;28;20606;-64
2022/07/07 08:05:54;;;;;;;3.95;1.05;;;21.60;58.50;;;;;;5011414;28;20255;-64
2022/07/07 08:08:20;;;;;;;2.63;1.13;;;21.60;58.50;;;;;;5013832;28;20175;-64
2022/07/07 08:10:45;;;;;;;1.90;1.00;;;21.60;58.40;;;;;;5015660;28;20295;-64
2022/07/07 08:13:11;;;;;;;2.53;0.80;;;21.60;58.50;;;;;;5015162;28;20267;-65
2022/07/07 08:15:36;;;;;;;1.52;0.85;;;21.60;58.40;;;;;;5015673;28;20204;-65
2022/07/07 08:18:03;;;;;;;2.20;0.95;;;21.60;58.70;;;;;;5015509;28;20725;-65
2022/07/07 08:20:29;;;;;;;3.45;1.10;;;21.60;58.50;;;;;;5015257;28;20184;-65
2022/07/07 08:22:54;;;;;;;2.10;0.90;;;21.60;58.70;;;;;;5015536;28;20184;-65
2022/07/07 08:25:20;;;;;;;2.08;0.80;;;21.70;58.50;;;;;;5015061;28;20176;-65
2022/07/07 08:27:46;;;;;;;4.25;0.90;;;21.70;58.40;;;;;;5015378;28;20705;-64
2022/07/07 08:30:11;;;;;;;1.85;0.88;;;21.80;58.40;;;;;;5015504;28;20179;-64
2022/07/07 08:32:37;;;;;;;1.85;0.63;;;21.80;58.40;;;;;;5014715;28;20223;-64
2022/07/07 08:35:03;;;;;;;1.23;0.88;;;21.80;58.40;;;;;;5015301;28;20172;-64
2022/07/07 08:37:29;;;;;;;1.17;0.65;;;21.80;58.60;;;;;;5015490;28;20268;-65
2022/07/07 08:39:54;;;;;;;1.42;0.70;;;21.70;58.60;;;;;;5014460;28;20251;-65
2022/07/07 08:42:20;;;;;;;1.00;0.65;;;21.70;58.70;;;;;;5015513;28;20272;-64
2022/07/07 08:44:45;;;;;;;3.03;1.25;;;21.70;58.70;;;;;;4981498;28;20181;-64
2022/07/07 08:47:11;;;;;;;2.03;0.80;;;21.70;58.70;;;;;;5014555;28;20196;-64
2022/07/07 08:49:37;;;;;;;2.10;0.90;;;21.70;58.70;;;;;;5015149;28;20596;-63
2022/07/07 08:52:02;;;;;;;1.85;0.70;;;21.70;58.70;;;;;;5015200;28;20222;-64
2022/07/07 08:54:28;;;;;;;1.67;0.80;;;21.80;58.70;;;;;;5014919;28;20585;-64
2022/07/07 08:56:54;;;;;;;1.65;0.70;;;21.80;58.70;;;;;;5014698;28;20176;-64
2022/07/07 08:59:19;;;;;;;1.85;0.80;;;21.80;58.70;;;;;;4997263;28;20224;-65
2022/07/07 09:01:55;;;;;;;2.53;1.00;;;21.80;58.70;;;;;;5013941;28;20260;-65
2022/07/07 09:04:21;;;;;;;1.13;0.63;;;21.80;58.70;;;;;;5014725;28;20251;-64
2022/07/07 09:06:57;;;;;;;1.38;0.80;;;21.90;58.60;;;;;;5014567;28;20224;-65
2022/07/07 09:09:38;;;;;;;0.98;0.70;;;21.80;58.50;;;;;;5014141;28;20227;-65
2022/07/07 09:12:05;;;;;;;1.85;0.80;;;21.80;58.70;;;;;;5014620;28;20626;-64
2022/07/07 09:14:39;;;;;;;1.83;1.17;;;21.70;58.90;;;;;;5013840;28;20212;-65
2022/07/07 09:17:26;;;;;;;1.13;0.63;;;21.60;58.90;;;;;;5014719;28;20259;-65
2022/07/07 09:20:08;;;;;;;1.08;0.77;;;21.60;59.00;;;;;;5013259;28;20666;-65
2022/07/07 09:23:00;;;;;;;0.70;0.60;;;21.70;58.90;;;;;;5013859;28;20531;-64
2022/07/07 09:25:26;;;;;;;1.77;0.70;;;21.70;58.80;;;;;;5010016;28;20537;-64
2022/07/07 09:27:55;;;;;;;1.20;0.60;;;21.70;58.80;;;;;;5014275;28;20719;-64
2022/07/07 09:30:31;;;;;;;2.38;0.60;;;21.80;58.70;;;;;;5013618;28;20639;-64
2022/07/07 09:32:57;;;;;;;1.40;0.90;;;21.80;58.60;;;;;;5013947;28;20792;-64
2022/07/07 09:38:14;;;;;;;1.75;0.88;;;21.90;58.50;;;;;;5014218;28;20568;-65
2022/07/07 09:40:50;;;;;;;3.67;1.23;;;21.90;58.40;;;;;;5014072;28;20184;-65
2022/07/07 09:43:16;;;;;;;1.02;0.50;;;22.00;58.30;;;;;;5013389;28;20542;-64
2022/07/07 09:45:41;;;;;;;1.30;0.80;;;22.10;58.40;;;;;;5013781;28;20666;-64
2022/07/07 09:48:08;;;;;;;0.65;0.57;;;22.00;58.30;;;;;;5014063;28;20187;-64
2022/07/07 09:50:33;;;;;;;2.78;0.77;;;22.00;58.70;;;;;;5013528;28;20606;-64
2022/07/07 09:52:59;;;;;;;1.23;0.77;;;21.90;58.60;;;;;;5013775;28;20755;-64
2022/07/07 09:55:25;;;;;;;1.30;0.70;;;21.90;58.70;;;;;;4980246;28;20165;-64
2022/07/07 09:57:50;;;;;;;2.15;1.00;;;21.80;58.70;;;;;;5012962;28;20211;-65
2022/07/07 10:00:16;;;;;;;1.33;0.60;;;21.80;58.70;;;;;;5013877;28;20532;-64
2022/07/07 10:02:42;;;;;;;1.35;0.60;;;21.70;58.80;;;;;;5013669;28;20215;-64
2022/07/07 10:05:07;;;;;;;2.20;0.73;;;21.80;58.90;;;;;;4995746;28;20195;-65
2022/07/07 10:07:37;;;;;;;0.60;0.40;;;21.80;58.80;;;;;;5013919;28;20544;-65
2022/07/07 10:10:04;;;;;;;1.95;0.75;;;21.80;58.80;;;;;;5013680;28;20176;-65
2022/07/07 10:12:29;;;;;;;0.77;0.47;;;21.80;58.70;;;;;;5012912;28;20585;-64
2022/07/07 10:15:02;;;;;;;1.17;0.68;;;21.90;58.70;;;;;;5013271;28;20635;-65
2022/07/07 10:17:29;;;;;;;0.60;0.30;;;21.90;58.70;;;;;;5013749;28;20180;-65
2022/07/07 10:19:54;;;;;;;1.63;0.70;;;21.90;58.60;;;;;;5012877;28;20180;-65
2022/07/07 10:22:26;;;;;;;0.90;0.60;;;21.90;58.60;;;;;;5013640;28;20230;-65
2022/07/07 10:24:52;;;;;;;0.93;0.50;;;21.90;58.60;;;;;;4996157;28;20194;-65
2022/07/07 10:27:17;;;;;;;0.93;0.63;;;21.90;58.60;;;;;;5013323;28;20172;-65
2022/07/07 10:29:51;;;;;;;1.13;0.65;;;21.90;58.70;;;;;;4979364;28;20176;-65
2022/07/07 10:32:17;;;;;;;0.40;0.40;;;21.90;58.70;;;;;;5012425;28;20220;-64
2022/07/07 10:34:54;;;;;;;1.40;0.60;;;21.90;58.60;;;;;;5013408;28;20538;-65
2022/07/07 10:37:20;;;;;;;0.85;0.43;;;22.00;58.50;;;;;;5013271;28;20267;-65
2022/07/07 10:39:47;;;;;;;1.25;0.60;;;22.00;58.40;;;;;;5012293;28;20610;-65
2022/07/07 10:42:15;;;;;;;1.02;0.50;;;22.00;58.50;;;;;;5013299;28;20186;-64
2022/07/07 10:44:42;;;;;;;0.50;0.38;;;22.00;58.60;;;;;;5013141;28;20172;-65
2022/07/07 10:47:11;;;;;;;0.88;0.38;;;21.90;58.70;;;;;;4995052;28;20293;-65
2022/07/07 10:49:44;;;;;;;1.45;0.40;;;21.80;58.90;;;;;;5013361;28;20211;-65
2022/07/07 10:52:14;;;;;;;0.80;0.45;;;21.80;59.00;;;;;;5013099;28;20207;-64
2022/07/07 10:54:41;;;;;;;1.80;0.50;;;21.70;59.10;;;;;;5013488;28;20271;-64
2022/07/07 10:57:12;;;;;;;0.88;0.40;;;21.70;59.00;;;;;;5013161;28;20259;-65
2022/07/07 10:59:58;;;;;;;0.88;0.50;;;21.70;59.00;;;;;;5012868;28;20239;-65
2022/07/07 11:02:30;;;;;;;5.28;1.00;;;21.80;59.10;;;;;;5012818;28;20184;-68
2022/07/07 11:04:58;;;;;;;3.75;0.77;;;21.80;59.00;;;;;;5012693;28;20213;-68
2022/07/07 11:07:24;;;;;;;5.65;1.17;;;21.80;58.90;;;;;;5012402;28;20527;-68
2022/07/07 11:10:00;;;;;;;2.67;0.90;;;22.00;58.60;;;;;;5012944;28;20700;-67
2022/07/07 11:12:39;;;;;;;2.05;0.57;;;22.10;58.60;;;;;;5012943;28;20183;-70
2022/07/07 11:15:14;;;;;;;2.80;0.68;;;22.20;58.50;;;;;;5012239;28;20187;-68
2022/07/07 11:17:44;;;;;;;1.77;0.80;;;22.20;58.30;;;;;;5012734;28;20215;-68
2022/07/07 11:20:16;;;;;;;3.22;0.70;;;22.10;58.50;;;;;;5012962;28;20208;-68
2022/07/07 11:22:45;;;;;;;3.47;0.68;;;22.00;58.70;;;;;;5011983;28;20239;-67
2022/07/07 11:25:12;;;;;;;1.80;0.60;;;22.00;59.00;;;;;;5012786;28;20185;-64
2022/07/07 11:27:37;;;;;;;2.30;0.85;;;21.90;59.10;;;;;;5012603;28;20173;-66
2022/07/07 11:30:04;;;;;;;4.72;0.95;;;21.90;59.10;;;;;;4994601;28;20188;-67
2022/07/07 11:32:40;;;;;;;0.88;0.60;;;21.90;59.20;;;;;;5012865;28;20277;-66
2022/07/07 11:35:07;;;;;;;2.35;0.90;;;21.90;59.10;;;;;;5012080;28;20177;-67
2022/07/07 11:37:33;;;;;;;2.55;0.70;;;22.00;59.30;;;;;;5012825;28;20223;-66
2022/07/07 11:39:59;;;;;;;4.18;1.00;;;22.00;59.20;;;;;;5012309;28;20185;-66
2022/07/07 11:42:25;;;;;;;3.92;1.10;;;22.00;59.30;;;;;;5011947;28;20190;-66
2022/07/07 11:44:51;;;;;;;3.08;0.73;;;22.00;59.30;;;;;;5016676;28;20185;-67
2022/07/07 11:47:16;;;;;;;3.35;1.10;;;22.00;59.30;;;;;;5016109;28;20647;-64
2022/07/07 11:49:42;;;;;;;6.25;1.13;;;22.00;60.00;;;;;;5015275;28;20172;-66
2022/07/07 11:52:15;;;;;;;2.42;0.73;;;22.00;59.40;;;;;;5016175;28;20223;-66
2022/07/07 11:54:45;;;;;;;3.97;0.93;;;22.00;59.30;;;;;;5015930;28;20169;-67
2022/07/07 11:57:10;;;;;;;3.60;0.93;;;22.00;59.40;;;;;;5015291;28;20530;-67
2022/07/07 11:59:36;;;;;;;2.47;0.90;;;21.90;59.30;;;;;;5016241;28;20205;-67
2022/07/07 12:02:01;;;;;;;2.10;0.80;;;21.90;59.30;;;;;;5015986;28;20176;-67
2022/07/07 12:04:27;;;;;;;1.90;1.10;;;22.00;59.30;;;;;;4997709;28;20220;-67
2022/07/07 12:06:53;;;;;;;3.15;0.80;;;22.00;59.20;;;;;;5015686;28;20593;-68
2022/07/07 12:09:22;;;;;;;2.38;0.80;;;22.00;59.20;;;;;;5015837;28;20710;-67
2022/07/07 12:11:48;;;;;;;2.85;0.95;;;22.00;59.10;;;;;;5015159;28;20183;-67
2022/07/07 12:14:13;;;;;;;2.10;0.63;;;22.10;59.10;;;;;;5015940;28;20177;-68
2022/07/07 12:16:43;;;;;;;1.45;0.68;;;22.10;59.00;;;;;;4981896;28;20195;-67
2022/07/07 12:19:09;;;;;;;1.27;0.70;;;22.10;59.00;;;;;;5015153;28;20291;-67
2022/07/07 12:21:44;;;;;;;5.15;1.17;;;22.10;59.00;;;;;;5015853;28;20268;-67
2022/07/07 12:24:17;;;;;;;5.38;0.95;;;22.10;58.90;;;;;;5015828;28;20226;-67
2022/07/07 12:26:46;;;;;;;2.63;0.85;;;22.20;58.90;;;;;;5015029;28;20187;-67
2022/07/07 12:29:11;;;;;;;2.28;0.60;;;22.20;58.80;;;;;;5015689;28;20263;-66
2022/07/07 12:31:37;;;;;;;2.42;0.80;;;22.30;58.80;;;;;;5014878;28;20196;-67
2022/07/07 12:34:12;;;;;;;1.30;0.63;;;22.20;58.70;;;;;;5015620;28;20172;-67
2022/07/07 12:36:39;;;;;;;1.88;0.70;;;22.30;58.70;;;;;;5015452;28;20180;-67
2022/07/07 12:39:05;;;;;;;1.90;0.60;;;22.20;58.70;;;;;;5014364;28;20294;-67
2022/07/07 12:41:35;;;;;;;3.40;0.80;;;22.30;58.70;;;;;;5015487;28;20639;-67
2022/07/07 12:44:29;;;;;;;3.22;1.00;;;22.30;58.60;;;;;;5014995;28;20705;-67
2022/07/07 12:46:56;;;;;;;1.00;0.60;;;22.30;58.60;;;;;;5014371;28;20572;-66
2022/07/07 12:49:21;;;;;;;1.95;0.75;;;22.30;58.50;;;;;;5015433;28;20228;-67